Airfield :
LOGIN :

Register | Disclaimer

   EN    FR    IT 

 










Legend :    VFR   Marginal VFR   IFR   Intensive IFR   Very Intensive IFR
Visi :
Ceiling :
>= 8 km
>= 3000ft
5 to 8 km
1000 to 3000 ft
1500m to 5 km
500 to 1000 ft
800 to 1500m
200 to 500 ft
< 800m
< 200 ft
Symbols :   Thunderstorms  Fog  Heavy snow  Heavy precipitations  Wind > 20 kt
SIGMETs :     Misc.  Thunderstorms  Icing  Turbulence  Mountain Waves  Volcanic Ashes







- Airport Elevation : 171 ft
- IATA code : EGC
- Download approach charts


LFBE - Bergerac

CURRENT METAR :
  • 222100Z AUTO 14001KT CAVOK 13/12 Q1017

EXPIRED METARs :
  • 222030Z AUTO 21003KT CAVOK 14/13 Q1017 NOSIG
  • 222000Z AUTO 20002KT CAVOK 15/13 Q1016 NOSIG
  • 221930Z AUTO 21004KT CAVOK 15/13 Q1016 NOSIG
  • 221900Z AUTO 22003KT 9999 FEW040 16/13 Q1015 NOSIG
  • 221830Z AUTO 25005KT 9999 ///CB 17/12 Q1015 BECMG SCT030

TAF AMD TAF LFBE
Valid from the 22 at 13:00 until the 23 at 12:00 UTC


221349Z 2213/2312 20005KT 9999 BKN040
BECMG 2214/2216 SCT030
PROB40
TEMPO 2213/2218 4000 -SHRA BKN014 BKN025TCU
PROB30 2304/2306 0800 BCFG
No reported NOTAMs for that airfield.



MET'MAP, your aeronautical weather chart ! - Copyright ORBIFLY December 2007 - Disclaimer

ORBIFLY MET'MAP TEAM :

Programming & Development : Alexandra Zaïnal
Concept & Development : Baudouin d'Aumeries
Co-Development & Prog : Marc-Olivier Méhu
Technical & hardware support : Manuel Goepfert

Contact : metmap@orbifly.com




SOURCES & CREDITS :

   NOAA